Time;durP1;ratioP1;P1;durP2;ratioP2;P2;SDS_P1;SDS_P2;PMS_P1;PMS_P2;Temp;Humidity;BMP_temperature;BMP_pressure;BME280_temperature;BME280_humidity;BME280_pressure;Samples;Min_cycle;Max_cycle;Signal;HPM_P1;HPM_P2
2022/06/28 00:01:44;;;;;;;7.68;1.70;;;15.50;99.90;;;;;;5053416;28;20025;-76
2022/06/28 00:04:11;;;;;;;6.63;1.40;;;15.40;99.90;;;;;;5053545;28;20021;-76
2022/06/28 00:06:37;;;;;;;13.75;2.00;;;15.40;99.90;;;;;;5053379;28;20707;-76
2022/06/28 00:09:03;;;;;;;12.80;1.92;;;15.40;99.90;;;;;;5054006;28;20033;-76
2022/06/28 00:11:29;;;;;;;13.88;2.50;;;15.40;99.90;;;;;;5053196;28;20033;-76
2022/06/28 00:13:55;;;;;;;13.25;1.98;;;15.30;99.90;;;;;;5053472;28;20413;-76
2022/06/28 00:16:20;;;;;;;6.40;1.55;;;15.30;99.90;;;;;;5040067;28;20096;-76
2022/06/28 00:18:46;;;;;;;10.18;2.08;;;15.30;99.90;;;;;;5052751;28;20499;-76
2022/06/28 00:21:12;;;;;;;9.52;1.95;;;15.30;99.90;;;;;;5052829;28;20072;-76
2022/06/28 00:23:39;;;;;;;11.15;2.00;;;15.20;99.90;;;;;;5052679;28;20032;-76
2022/06/28 00:26:06;;;;;;;11.27;1.90;;;15.20;99.90;;;;;;5053579;28;20025;-76
2022/06/28 00:28:32;;;;;;;7.78;1.45;;;15.20;99.90;;;;;;5051917;28;20025;-76
2022/06/28 00:30:58;;;;;;;8.77;1.63;;;15.20;99.90;;;;;;5052942;28;20110;-76
2022/06/28 00:33:23;;;;;;;10.80;1.60;;;15.10;99.90;;;;;;5053020;28;20436;-77
2022/06/28 00:35:49;;;;;;;12.88;1.70;;;15.10;99.90;;;;;;5053258;28;20013;-76
2022/06/28 00:38:16;;;;;;;10.95;1.95;;;15.10;99.90;;;;;;5052705;28;20021;-76
2022/06/28 00:40:49;;;;;;;11.05;1.55;;;15.10;99.90;;;;;;5048350;28;20009;-76
2022/06/28 00:43:16;;;;;;;8.00;1.52;;;15.10;99.90;;;;;;5044069;28;20052;-76
2022/06/28 00:45:46;;;;;;;7.68;1.30;;;15.10;99.90;;;;;;5053583;28;20021;-76
2022/06/28 00:48:14;;;;;;;9.98;1.95;;;15.00;99.90;;;;;;5052868;28;20338;-76
2022/06/28 00:50:40;;;;;;;8.30;1.42;;;15.00;99.90;;;;;;5053425;28;20485;-76
2022/06/28 00:53:12;;;;;;;8.60;1.50;;;15.00;99.90;;;;;;5053882;28;20095;-76
2022/06/28 00:55:38;;;;;;;9.23;1.63;;;15.00;99.90;;;;;;5053794;28;20021;-77
2022/06/28 00:58:04;;;;;;;9.35;1.70;;;15.00;99.90;;;;;;5053629;28;20025;-76
2022/06/28 01:00:34;;;;;;;9.48;1.42;;;15.00;99.90;;;;;;5053764;28;20043;-76
2022/06/28 01:03:00;;;;;;;11.15;1.30;;;15.00;99.90;;;;;;5053141;28;20025;-76
2022/06/28 01:05:27;;;;;;;7.57;1.25;;;14.90;99.90;;;;;;5052464;28;20051;-76
2022/06/28 01:07:53;;;;;;;9.75;1.65;;;14.90;99.90;;;;;;5052208;28;20484;-76
2022/06/28 01:10:19;;;;;;;9.35;1.70;;;14.90;99.90;;;;;;5052954;28;20024;-76
2022/06/28 01:12:44;;;;;;;11.45;1.58;;;14.90;99.90;;;;;;5051829;28;20029;-76
2022/06/28 01:15:10;;;;;;;15.23;1.83;;;14.80;99.90;;;;;;5052061;28;20100;-76
2022/06/28 01:17:35;;;;;;;9.93;1.63;;;14.80;99.90;;;;;;5042478;28;20025;-76
2022/06/28 01:20:01;;;;;;;6.95;1.75;;;14.80;99.90;;;;;;5047764;28;20102;-76
2022/06/28 01:22:29;;;;;;;13.43;1.98;;;14.80;99.90;;;;;;5051461;28;20033;-76
2022/06/28 01:24:56;;;;;;;8.85;1.70;;;14.70;99.90;;;;;;5051976;28;20017;-76
2022/06/28 01:27:22;;;;;;;10.63;1.42;;;14.70;99.90;;;;;;5052508;28;20013;-76
2022/06/28 01:29:48;;;;;;;12.68;1.92;;;14.70;99.90;;;;;;5052368;28;20036;-75
2022/06/28 01:32:14;;;;;;;14.80;1.90;;;14.70;99.90;;;;;;5052497;28;20100;-75
2022/06/28 01:34:40;;;;;;;19.00;2.08;;;14.70;99.90;;;;;;5053085;28;20102;-76
2022/06/28 01:37:07;;;;;;;13.23;2.17;;;14.70;99.90;;;;;;5055400;28;20046;-76
2022/06/28 01:39:32;;;;;;;10.52;2.13;;;14.60;99.90;;;;;;5056303;28;20031;-76
2022/06/28 01:41:59;;;;;;;16.63;2.15;;;14.60;99.90;;;;;;5055666;28;20025;-76
2022/06/28 01:44:25;;;;;;;12.02;2.35;;;14.60;99.90;;;;;;5041569;28;20112;-76
2022/06/28 01:46:51;;;;;;;8.88;2.05;;;14.60;99.90;;;;;;5055964;28;20025;-76
2022/06/28 01:49:17;;;;;;;9.18;2.40;;;14.60;99.90;;;;;;5055993;28;20018;-76
2022/06/28 01:51:42;;;;;;;10.48;2.70;;;14.50;99.90;;;;;;5055783;28;20091;-76
2022/06/28 01:54:08;;;;;;;9.02;2.28;;;14.50;99.90;;;;;;5054948;28;20402;-76
2022/06/28 01:56:35;;;;;;;9.00;2.55;;;14.50;99.90;;;;;;5055066;28;20032;-76
2022/06/28 01:59:01;;;;;;;11.48;2.53;;;14.50;99.90;;;;;;5054566;28;20029;-76
2022/06/28 02:01:27;;;;;;;12.93;2.63;;;14.50;99.90;;;;;;5054030;28;20086;-76
2022/06/28 02:03:53;;;;;;;13.65;2.33;;;14.50;99.90;;;;;;5054224;28;20025;-76
2022/06/28 02:06:19;;;;;;;10.00;2.40;;;14.50;99.90;;;;;;5040309;28;20024;-76
2022/06/28 02:08:45;;;;;;;14.35;3.10;;;14.40;99.90;;;;;;5054678;28;20025;-76
2022/06/28 02:11:11;;;;;;;12.35;2.10;;;14.40;99.90;;;;;;5054722;28;20477;-76
2022/06/28 02:13:36;;;;;;;12.80;2.38;;;14.40;99.90;;;;;;5054136;28;20025;-76
2022/06/28 02:16:05;;;;;;;8.73;2.28;;;14.40;99.90;;;;;;5054577;28;20036;-76
2022/06/28 02:18:31;;;;;;;11.85;2.15;;;14.40;99.90;;;;;;5054146;28;20075;-76
2022/06/28 02:20:57;;;;;;;7.88;2.20;;;14.40;99.90;;;;;;5054469;28;20420;-76
2022/06/28 02:23:23;;;;;;;13.23;2.33;;;14.30;99.90;;;;;;5054187;28;20025;-76
2022/06/28 02:25:49;;;;;;;9.93;2.00;;;14.30;99.90;;;;;;5053462;28;20067;-75
2022/06/28 02:28:14;;;;;;;7.45;1.80;;;14.30;99.90;;;;;;5054428;28;20052;-76
2022/06/28 02:30:40;;;;;;;9.30;2.20;;;14.30;99.90;;;;;;5053612;28;20128;-76
2022/06/28 02:33:05;;;;;;;12.13;2.05;;;14.30;99.90;;;;;;5053851;28;20021;-76
2022/06/28 02:41:00;;;;;;;9.77;2.13;;;14.20;99.90;;;;;;5053785;28;20044;-76
2022/06/28 02:43:25;;;;;;;9.80;2.03;;;14.20;99.90;;;;;;5045109;28;20022;-76
2022/06/28 02:45:51;;;;;;;10.98;2.00;;;14.20;99.90;;;;;;5048018;28;20021;-76
2022/06/28 02:48:17;;;;;;;7.68;1.83;;;14.20;99.90;;;;;;5043539;28;20032;-76
2022/06/28 02:50:42;;;;;;;11.45;1.80;;;14.20;99.90;;;;;;5033745;28;20424;-76
2022/06/28 02:53:08;;;;;;;11.52;2.00;;;14.20;99.90;;;;;;5033106;28;20060;-76
2022/06/28 02:55:33;;;;;;;8.63;1.95;;;14.20;99.90;;;;;;5032268;28;20117;-76
2022/06/28 02:57:59;;;;;;;12.13;2.22;;;14.20;99.90;;;;;;5032715;28;20021;-76
2022/06/28 03:00:25;;;;;;;11.02;2.10;;;14.20;99.90;;;;;;5036488;28;20022;-76
2022/06/28 03:02:51;;;;;;;16.42;1.70;;;14.20;99.90;;;;;;5049855;28;20037;-76
2022/06/28 03:05:19;;;;;;;12.30;2.15;;;14.20;99.90;;;;;;5038745;28;20056;-76
2022/06/28 03:07:45;;;;;;;13.63;2.05;;;14.10;99.90;;;;;;5052866;28;20078;-76
2022/06/28 03:10:12;;;;;;;10.60;1.85;;;14.10;99.90;;;;;;5052605;28;20028;-76
2022/06/28 03:12:37;;;;;;;11.27;2.10;;;14.10;99.90;;;;;;5045878;28;20017;-76
2022/06/28 03:15:04;;;;;;;12.88;2.25;;;14.10;99.90;;;;;;5045599;28;20040;-76
2022/06/28 03:17:30;;;;;;;8.38;1.98;;;14.10;99.90;;;;;;5052140;28;20017;-76
2022/06/28 03:19:56;;;;;;;11.48;2.38;;;14.10;99.90;;;;;;5051822;28;20249;-76
2022/06/28 03:22:21;;;;;;;11.15;2.33;;;14.10;99.90;;;;;;5052556;28;20037;-76
2022/06/28 03:24:47;;;;;;;13.13;2.28;;;14.10;99.90;;;;;;5052107;28;20032;-76
2022/06/28 03:27:13;;;;;;;13.65;2.20;;;14.10;99.90;;;;;;5052530;28;20372;-76
2022/06/28 03:29:38;;;;;;;11.68;2.28;;;14.10;99.90;;;;;;5045690;28;20091;-76
2022/06/28 03:32:04;;;;;;;14.73;2.47;;;14.00;99.90;;;;;;5044155;28;20072;-76
2022/06/28 03:34:30;;;;;;;11.65;2.30;;;14.00;99.90;;;;;;5051531;28;20376;-76
2022/06/28 03:36:56;;;;;;;12.73;2.55;;;14.00;99.90;;;;;;5052079;28;20445;-76
2022/06/28 03:39:22;;;;;;;12.52;2.25;;;14.00;99.90;;;;;;5051892;28;20485;-76
2022/06/28 03:41:48;;;;;;;14.20;2.40;;;14.00;99.90;;;;;;5051995;28;20079;-76
2022/06/28 03:44:13;;;;;;;10.00;2.20;;;14.00;99.90;;;;;;5051275;28;20706;-76
2022/06/28 03:46:39;;;;;;;12.80;2.40;;;14.00;99.90;;;;;;5031476;28;20022;-76
2022/06/28 03:49:04;;;;;;;16.77;2.45;;;14.00;99.90;;;;;;5044147;28;20027;-76
2022/06/28 03:51:30;;;;;;;11.63;2.40;;;14.00;99.90;;;;;;5051504;28;20025;-76
2022/06/28 03:53:56;;;;;;;16.08;2.70;;;14.00;99.90;;;;;;5051832;28;20021;-76
2022/06/28 03:56:21;;;;;;;13.73;2.33;;;14.10;99.90;;;;;;5051336;28;20381;-76
2022/06/28 03:58:47;;;;;;;14.82;2.60;;;14.10;99.90;;;;;;5050987;28;20440;-76
2022/06/28 04:01:13;;;;;;;11.40;2.25;;;14.10;99.90;;;;;;5051364;28;20100;-76
2022/06/28 04:03:38;;;;;;;14.02;2.50;;;14.10;99.90;;;;;;5046179;28;20026;-76
2022/06/28 04:06:04;;;;;;;12.95;2.90;;;14.10;99.90;;;;;;5042393;28;20021;-76
2022/06/28 04:08:30;;;;;;;15.73;2.92;;;14.10;99.90;;;;;;5051211;28;20028;-76
2022/06/28 04:11:14;;;;;;;11.68;2.35;;;14.20;99.90;;;;;;5051043;28;20029;-76
2022/06/28 04:13:42;;;;;;;17.23;2.65;;;14.20;99.90;;;;;;5051138;28;20025;-76
2022/06/28 04:16:07;;;;;;;14.27;2.72;;;14.20;99.90;;;;;;5050949;28;20428;-76
2022/06/28 04:18:33;;;;;;;13.65;2.70;;;14.20;99.90;;;;;;5036970;28;20033;-76
2022/06/28 04:20:59;;;;;;;15.70;3.38;;;14.20;99.90;;;;;;5050698;28;20052;-77
2022/06/28 04:23:25;;;;;;;20.17;3.50;;;14.20;99.90;;;;;;5050822;28;20047;-76
2022/06/28 04:25:51;;;;;;;19.25;3.92;;;14.20;99.90;;;;;;5050869;28;20056;-76
2022/06/28 04:28:16;;;;;;;19.20;3.90;;;14.30;99.90;;;;;;5050670;28;20028;-77
2022/06/28 04:30:42;;;;;;;13.60;3.28;;;14.30;99.90;;;;;;5036479;28;20017;-77
2022/06/28 04:33:08;;;;;;;12.15;3.20;;;14.30;99.90;;;;;;5050422;28;20151;-76
2022/06/28 04:35:33;;;;;;;18.48;3.58;;;14.30;99.90;;;;;;5048337;28;20032;-77
2022/06/28 04:38:01;;;;;;;15.30;3.28;;;14.30;99.90;;;;;;5037204;28;20541;-77
2022/06/28 04:40:27;;;;;;;18.50;3.50;;;14.40;99.90;;;;;;5050300;28;20140;-77
2022/06/28 04:42:52;;;;;;;20.98;3.67;;;14.40;99.90;;;;;;5050727;28;20358;-77
2022/06/28 04:45:18;;;;;;;13.50;3.38;;;14.30;99.90;;;;;;5050461;28;20056;-77
2022/06/28 04:47:43;;;;;;;20.38;3.30;;;14.40;99.90;;;;;;5050167;28;20035;-77
2022/06/28 04:50:09;;;;;;;17.77;3.50;;;14.40;99.90;;;;;;5032420;28;20026;-78
2022/06/28 04:52:36;;;;;;;16.35;3.63;;;14.50;99.90;;;;;;5037671;28;20381;-78
2022/06/28 04:55:02;;;;;;;20.67;3.72;;;14.50;99.90;;;;;;5030787;28;20377;-77
2022/06/28 04:57:28;;;;;;;14.32;3.88;;;14.50;99.90;;;;;;5029889;28;20021;-78
2022/06/28 04:59:54;;;;;;;19.98;4.07;;;14.50;99.90;;;;;;5030274;28;20030;-77
2022/06/28 05:02:19;;;;;;;24.27;3.97;;;14.60;99.90;;;;;;5030384;28;20052;-77
2022/06/28 05:04:45;;;;;;;17.50;3.65;;;14.60;99.90;;;;;;5030373;28;20014;-78
2022/06/28 05:07:11;;;;;;;18.05;3.70;;;14.60;99.90;;;;;;5043177;28;20029;-77
2022/06/28 05:09:36;;;;;;;16.52;3.97;;;14.60;99.90;;;;;;5031086;28;20021;-76
2022/06/28 05:12:02;;;;;;;19.95;3.88;;;14.70;99.90;;;;;;5033886;28;20076;-76
2022/06/28 05:14:27;;;;;;;22.23;4.13;;;14.70;99.90;;;;;;5034160;28;20076;-76
2022/06/28 05:16:53;;;;;;;19.95;4.07;;;14.80;99.90;;;;;;5036223;28;20021;-76
2022/06/28 05:19:18;;;;;;;21.67;4.35;;;14.80;99.90;;;;;;5044757;28;20025;-76
2022/06/28 05:21:44;;;;;;;16.95;4.00;;;14.80;99.90;;;;;;5033409;28;20026;-76
2022/06/28 05:24:10;;;;;;;18.08;4.40;;;14.90;99.90;;;;;;5033829;28;20018;-77
2022/06/28 05:26:35;;;;;;;17.67;4.22;;;14.90;99.90;;;;;;5036117;28;20075;-75
2022/06/28 05:29:01;;;;;;;24.17;4.35;;;14.90;99.90;;;;;;5039523;28;20635;-76
2022/06/28 05:31:26;;;;;;;23.60;4.75;;;15.00;99.90;;;;;;5039815;28;20040;-76
2022/06/28 05:33:52;;;;;;;31.23;4.88;;;15.00;99.90;;;;;;5039197;28;20022;-76
2022/06/28 05:36:18;;;;;;;23.17;4.93;;;15.00;99.90;;;;;;5044262;28;20076;-74
2022/06/28 05:38:43;;;;;;;21.30;4.45;;;15.00;99.90;;;;;;5039696;28;20065;-74
2022/06/28 05:41:09;;;;;;;31.10;5.07;;;15.10;99.90;;;;;;5039445;28;20041;-77
2022/06/28 05:43:35;;;;;;;34.47;5.53;;;15.10;99.90;;;;;;5041024;28;20033;-75
2022/06/28 05:46:01;;;;;;;16.73;4.63;;;15.20;99.90;;;;;;5035403;28;20120;-76
2022/06/28 05:48:27;;;;;;;21.67;4.93;;;15.20;99.90;;;;;;5035312;28;20100;-76
2022/06/28 05:50:53;;;;;;;19.05;4.78;;;15.20;99.90;;;;;;5038744;28;20021;-79
2022/06/28 05:53:18;;;;;;;19.65;4.22;;;15.20;99.90;;;;;;5033313;28;20013;-81
2022/06/28 05:55:44;;;;;;;22.00;4.68;;;15.30;99.90;;;;;;5031594;28;20450;-81
2022/06/28 05:58:09;;;;;;;25.23;5.00;;;15.30;99.90;;;;;;5031874;28;20013;-81
2022/06/28 06:00:37;;;;;;;22.67;4.78;;;15.30;99.90;;;;;;5043662;28;20103;-81
2022/06/28 06:03:04;;;;;;;24.45;5.30;;;15.40;99.90;;;;;;5032864;28;20437;-81
2022/06/28 06:05:29;;;;;;;23.83;4.60;;;15.40;99.90;;;;;;5039434;28;20047;-81
2022/06/28 06:07:55;;;;;;;26.52;5.20;;;15.40;99.90;;;;;;5052064;28;20021;-81
2022/06/28 06:10:20;;;;;;;22.45;5.07;;;15.40;99.90;;;;;;5052300;28;20013;-81
2022/06/28 06:12:46;;;;;;;23.98;4.47;;;15.50;99.90;;;;;;5053063;28;20048;-81
2022/06/28 06:15:12;;;;;;;25.10;4.72;;;15.50;99.90;;;;;;5051974;28;20124;-81
2022/06/28 06:17:37;;;;;;;24.90;4.20;;;15.50;99.90;;;;;;5053010;28;20025;-81
2022/06/28 06:20:04;;;;;;;24.40;4.50;;;15.60;99.90;;;;;;5052998;28;20053;-81
2022/06/28 06:22:30;;;;;;;18.15;4.30;;;15.60;99.90;;;;;;5051747;28;20667;-81
2022/06/28 06:24:56;;;;;;;27.00;4.53;;;15.70;99.90;;;;;;5053149;28;20369;-81
2022/06/28 06:27:22;;;;;;;27.48;4.35;;;15.70;99.90;;;;;;5052692;28;20017;-81
2022/06/28 06:29:48;;;;;;;20.45;4.40;;;15.70;99.90;;;;;;5051418;28;20032;-81
2022/06/28 06:32:13;;;;;;;19.38;4.03;;;15.80;99.90;;;;;;5052534;28;20029;-81
2022/06/28 06:34:39;;;;;;;27.50;4.25;;;15.80;99.90;;;;;;5052885;28;20103;-81
2022/06/28 06:37:05;;;;;;;25.73;4.75;;;15.90;99.90;;;;;;5038817;28;20102;-82
2022/06/28 06:39:31;;;;;;;19.48;4.70;;;15.90;99.90;;;;;;5052879;28;20067;-81
2022/06/28 06:41:57;;;;;;;19.40;4.50;;;16.00;99.90;;;;;;5053068;28;20028;-81
2022/06/28 06:44:22;;;;;;;21.83;4.60;;;16.00;99.90;;;;;;5053126;28;20021;-81
2022/06/28 06:46:48;;;;;;;25.02;4.53;;;16.00;99.90;;;;;;5053169;28;20025;-81
2022/06/28 06:49:14;;;;;;;19.67;4.18;;;16.10;99.90;;;;;;5052474;28;20111;-81
2022/06/28 06:51:44;;;;;;;26.90;4.18;;;16.20;99.90;;;;;;5052691;28;20017;-81
2022/06/28 06:54:10;;;;;;;22.02;4.32;;;16.30;99.90;;;;;;5052345;28;20094;-81
2022/06/28 06:56:35;;;;;;;23.98;4.65;;;16.40;99.90;;;;;;5045574;28;20496;-81
2022/06/28 06:59:01;;;;;;;23.25;5.47;;;16.50;99.90;;;;;;5044290;28;20107;-81
2022/06/28 07:01:29;;;;;;;18.45;4.97;;;16.50;99.90;;;;;;5052369;28;20025;-81
2022/06/28 07:03:55;;;;;;;24.05;5.55;;;16.60;99.90;;;;;;5044699;28;20021;-81
2022/06/28 07:06:21;;;;;;;20.20;6.25;;;16.60;99.90;;;;;;5045555;28;20033;-81
2022/06/28 07:08:46;;;;;;;20.15;5.07;;;16.70;99.90;;;;;;5051509;28;20400;-81
2022/06/28 07:11:12;;;;;;;23.83;4.82;;;16.80;99.90;;;;;;5051883;28;20048;-81
2022/06/28 07:13:37;;;;;;;20.70;4.90;;;16.80;99.90;;;;;;5051778;28;20074;-81
2022/06/28 07:16:03;;;;;;;20.98;4.95;;;16.80;99.90;;;;;;5051878;28;20055;-82
2022/06/28 07:18:29;;;;;;;27.50;5.63;;;16.80;99.90;;;;;;5051658;28;20162;-80
2022/06/28 07:20:55;;;;;;;23.80;5.70;;;16.90;99.90;;;;;;5051503;28;20049;-80
2022/06/28 07:23:22;;;;;;;21.38;5.55;;;16.90;99.90;;;;;;5051390;28;20061;-80
2022/06/28 07:25:47;;;;;;;22.08;7.15;;;17.00;99.90;;;;;;5050345;28;20021;-80
2022/06/28 07:28:13;;;;;;;21.50;6.80;;;17.00;99.90;;;;;;5051631;28;20033;-83
2022/06/28 07:30:38;;;;;;;23.25;6.78;;;17.10;99.90;;;;;;5051502;28;20079;-80
2022/06/28 07:33:04;;;;;;;21.95;6.00;;;17.20;99.90;;;;;;5051500;28;20100;-80
2022/06/28 07:35:30;;;;;;;24.92;5.57;;;17.30;99.90;;;;;;5052506;28;20021;-81
2022/06/28 07:37:55;;;;;;;17.25;4.88;;;17.40;99.90;;;;;;5051364;28;20024;-79
2022/06/28 07:40:21;;;;;;;18.27;4.68;;;17.50;99.90;;;;;;5051222;28;20068;-81
2022/06/28 07:42:47;;;;;;;15.82;3.85;;;17.70;99.90;;;;;;5051098;28;20409;-81
2022/06/28 07:45:14;;;;;;;13.40;5.88;;;18.00;99.90;;;;;;5051646;28;20037;-81
2022/06/28 07:47:39;;;;;;;16.83;5.25;;;18.10;99.90;;;;;;5051430;28;20315;-81
2022/06/28 07:52:49;;;;;;;18.73;4.10;;;18.40;99.90;;;;;;5052616;28;20102;-81
2022/06/28 07:55:15;;;;;;;17.08;4.18;;;18.50;99.90;;;;;;5051517;28;20428;-80
2022/06/28 07:57:40;;;;;;;14.20;3.05;;;18.70;99.90;;;;;;5051221;28;20025;-81
2022/06/28 08:00:07;;;;;;;14.45;2.83;;;18.80;99.90;;;;;;5051392;28;20472;-81
2022/06/28 08:02:33;;;;;;;16.30;2.95;;;19.00;99.90;;;;;;5051089;28;20056;-79
2022/06/28 08:04:59;;;;;;;13.02;2.75;;;19.20;99.90;;;;;;5037642;28;20040;-75
2022/06/28 08:07:24;;;;;;;15.45;2.47;;;19.30;99.90;;;;;;5052615;28;20020;-78
2022/06/28 08:09:50;;;;;;;16.63;2.90;;;19.50;99.90;;;;;;5038940;28;20018;-76
2022/06/28 08:12:16;;;;;;;21.17;2.90;;;19.70;99.90;;;;;;5032350;28;20071;-76
2022/06/28 08:14:42;;;;;;;14.77;2.50;;;19.80;99.90;;;;;;5033536;28;20021;-77
2022/06/28 08:17:08;;;;;;;9.70;2.30;;;19.80;99.90;;;;;;5035994;28;20143;-77
2022/06/28 08:19:34;;;;;;;15.52;2.53;;;20.00;99.90;;;;;;5046662;28;20481;-77
2022/06/28 08:22:00;;;;;;;8.27;1.85;;;20.20;99.90;;;;;;5034249;28;20032;-76
2022/06/28 08:24:26;;;;;;;15.70;2.72;;;20.30;99.90;;;;;;5034264;28;20028;-77
2022/06/28 08:26:53;;;;;;;14.80;2.40;;;20.40;99.90;;;;;;5033629;28;20112;-77
2022/06/28 08:29:20;;;;;;;12.52;2.40;;;20.40;99.90;;;;;;5043384;28;20024;-77
2022/06/28 08:31:47;;;;;;;12.57;2.60;;;20.40;99.90;;;;;;5031917;28;20100;-77
2022/06/28 08:34:12;;;;;;;10.48;2.58;;;20.50;99.90;;;;;;5032811;28;20028;-77
2022/06/28 08:36:38;;;;;;;8.98;2.00;;;20.60;99.90;;;;;;5037786;28;20017;-76
2022/06/28 08:39:04;;;;;;;17.48;2.38;;;20.50;99.90;;;;;;5034694;28;20112;-77
2022/06/28 08:41:32;;;;;;;16.33;2.80;;;20.60;99.90;;;;;;5041775;28;20416;-77
2022/06/28 08:43:58;;;;;;;14.65;2.65;;;20.70;99.90;;;;;;5031514;28;20028;-77
2022/06/28 08:46:26;;;;;;;12.02;2.13;;;20.90;99.90;;;;;;5035022;28;20486;-76
2022/06/28 08:49:17;;;;;;;9.57;2.33;;;21.00;99.90;;;;;;5045213;28;20606;-76
2022/06/28 08:51:43;;;;;;;13.48;2.40;;;21.10;99.90;;;;;;5033038;28;20048;-76
2022/06/28 08:54:10;;;;;;;12.23;2.08;;;21.10;99.90;;;;;;5032388;28;20558;-77
2022/06/28 08:56:39;;;;;;;10.57;2.20;;;21.10;99.90;;;;;;5034238;28;20025;-76
2022/06/28 08:59:06;;;;;;;16.83;2.45;;;21.20;99.90;;;;;;5031564;28;20423;-76
2022/06/28 09:01:32;;;;;;;11.43;2.25;;;21.30;99.90;;;;;;5042504;28;20063;-77
2022/06/28 09:04:00;;;;;;;10.68;2.28;;;21.50;99.90;;;;;;5037840;28;20385;-76
2022/06/28 09:06:25;;;;;;;12.45;2.40;;;21.50;99.90;;;;;;5039588;28;20044;-76
2022/06/28 09:08:51;;;;;;;11.55;2.15;;;21.50;99.90;;;;;;5033039;28;20462;-76
2022/06/28 09:11:17;;;;;;;11.77;2.03;;;21.40;99.90;;;;;;5042257;28;20021;-75
2022/06/28 09:13:44;;;;;;;12.52;2.30;;;21.50;99.90;;;;;;5034044;28;20059;-76
2022/06/28 09:16:10;;;;;;;8.20;2.05;;;21.60;99.50;;;;;;5032444;28;20040;-76
2022/06/28 09:18:35;;;;;;;11.80;2.33;;;21.60;98.60;;;;;;5035637;28;20489;-77
2022/06/28 09:21:05;;;;;;;12.75;2.22;;;21.70;97.90;;;;;;5034854;28;20132;-77
2022/06/28 09:23:36;;;;;;;13.13;2.30;;;21.70;97.40;;;;;;5034159;28;20021;-81
2022/06/28 09:26:12;;;;;;;13.50;2.63;;;21.80;97.00;;;;;;5050478;28;20021;-79
2022/06/28 09:28:45;;;;;;;11.32;2.00;;;22.00;96.40;;;;;;5035301;28;20108;-78
2022/06/28 09:31:30;;;;;;;11.98;1.95;;;22.10;95.00;;;;;;5030889;28;20485;-78
2022/06/28 09:34:04;;;;;;;9.93;1.80;;;22.30;94.20;;;;;;5031362;28;20014;-78
2022/06/28 09:36:32;;;;;;;9.93;2.08;;;22.40;91.50;;;;;;5032365;28;20025;-76
2022/06/28 09:39:08;;;;;;;9.63;1.73;;;22.40;90.80;;;;;;5041626;28;20052;-76
2022/06/28 09:41:34;;;;;;;7.95;1.70;;;22.30;90.40;;;;;;5031274;28;20070;-77
2022/06/28 09:44:03;;;;;;;8.70;1.70;;;22.30;89.10;;;;;;5034055;28;20119;-76
2022/06/28 09:46:32;;;;;;;11.55;2.28;;;22.30;87.30;;;;;;5030366;28;20017;-76
2022/06/28 09:49:01;;;;;;;12.93;2.25;;;22.40;86.20;;;;;;5045420;28;20052;-77
2022/06/28 09:51:29;;;;;;;12.25;2.28;;;22.30;85.60;;;;;;5033391;28;20057;-76
2022/06/28 09:53:58;;;;;;;5.68;1.45;;;22.30;85.10;;;;;;5031006;28;20067;-76
2022/06/28 09:56:26;;;;;;;12.52;1.80;;;22.50;85.50;;;;;;5035032;28;20025;-76
2022/06/28 09:58:52;;;;;;;8.50;1.65;;;22.70;85.80;;;;;;5049239;28;20036;-78
2022/06/28 10:01:19;;;;;;;8.73;1.73;;;22.90;84.50;;;;;;5047790;28;20021;-77
2022/06/28 10:03:45;;;;;;;7.20;1.80;;;23.00;81.30;;;;;;5054512;28;20025;-78
2022/06/28 10:06:12;;;;;;;5.30;1.55;;;23.10;79.50;;;;;;5056343;28;20032;-77
2022/06/28 10:08:39;;;;;;;5.53;1.50;;;23.10;78.10;;;;;;5051279;28;20025;-78
2022/06/28 10:11:05;;;;;;;9.63;1.95;;;23.20;78.60;;;;;;5037722;28;20033;-77
2022/06/28 10:16:30;;;;;;;7.43;1.60;;;23.50;75.60;;;;;;5048522;28;20628;-76
2022/06/28 10:18:57;;;;;;;7.97;1.70;;;23.50;72.50;;;;;;5045894;28;20531;-75
2022/06/28 10:21:43;;;;;;;9.52;1.70;;;23.60;73.60;;;;;;5036610;28;20056;-79
2022/06/28 10:24:08;;;;;;;;;;;23.60;70.70;;;;;;5031521;28;20028;-79
2022/06/28 10:26:34;;;;;;;9.48;1.50;;;23.40;68.30;;;;;;5031285;28;19908;-78
2022/06/28 10:29:05;;;;;;;7.47;1.60;;;23.30;69.50;;;;;;5032710;28;20091;-79
2022/06/28 10:31:39;;;;;;;8.73;1.83;;;23.50;68.80;;;;;;5032712;28;20079;-79
2022/06/28 10:34:11;;;;;;;10.63;1.88;;;23.60;67.10;;;;;;5033241;28;20018;-79
2022/06/28 10:36:57;;;;;;;8.18;1.50;;;23.60;68.70;;;;;;5032385;28;20017;-79
2022/06/28 10:39:24;;;;;;;5.95;1.38;;;23.60;65.20;;;;;;5031656;28;20475;-79
2022/06/28 10:41:59;;;;;;;5.25;1.33;;;23.60;66.00;;;;;;5030646;28;20148;-79
2022/06/28 10:44:44;;;;;;;7.53;1.55;;;23.50;64.70;;;;;;5032004;28;20030;-78
2022/06/28 10:47:11;;;;;;;5.00;1.30;;;23.60;65.50;;;;;;5030548;28;20581;-79
2022/06/28 10:49:46;;;;;;;6.78;1.48;;;23.60;64.20;;;;;;5031776;28;20024;-79
2022/06/28 10:52:19;;;;;;;9.00;1.40;;;23.60;63.40;;;;;;5032619;28;20057;-79
2022/06/28 10:54:51;;;;;;;10.05;1.35;;;23.60;62.70;;;;;;5032678;28;20121;-78
2022/06/28 10:57:23;;;;;;;10.52;1.35;;;23.70;63.10;;;;;;5032270;28;20539;-79
2022/06/28 10:59:51;;;;;;;4.30;1.30;;;23.70;63.60;;;;;;5038126;28;20063;-78
2022/06/28 11:02:17;;;;;;;4.82;1.42;;;23.70;63.80;;;;;;5036611;28;20474;-78
2022/06/28 11:04:45;;;;;;;3.58;0.93;;;23.90;62.50;;;;;;5032529;28;20021;-79
2022/06/28 11:07:19;;;;;;;6.97;1.83;;;24.00;61.40;;;;;;5038097;28;20452;-78
2022/06/28 11:10:00;;;;;;;5.75;1.15;;;23.90;60.90;;;;;;5052326;28;20025;-79
2022/06/28 11:12:32;;;;;;;5.95;1.10;;;24.00;61.50;;;;;;5039736;28;20032;-78
2022/06/28 11:15:03;;;;;;;3.15;1.02;;;24.10;60.40;;;;;;5052286;28;20027;-79
2022/06/28 11:17:30;;;;;;;4.40;1.15;;;24.20;60.20;;;;;;5052246;28;20060;-79
2022/06/28 11:20:01;;;;;;;7.00;1.38;;;24.20;59.30;;;;;;5051626;28;20298;-79
2022/06/28 11:22:38;;;;;;;6.85;1.30;;;24.30;59.60;;;;;;5051897;28;20036;-79
2022/06/28 11:25:06;;;;;;;6.68;1.42;;;24.30;59.50;;;;;;5052416;28;20048;-78
2022/06/28 11:27:32;;;;;;;6.35;1.40;;;24.30;59.20;;;;;;5051926;28;20029;-78
2022/06/28 11:30:00;;;;;;;6.75;1.27;;;24.40;59.40;;;;;;5052012;28;20021;-77
2022/06/28 11:32:32;;;;;;;6.65;1.48;;;24.40;59.60;;;;;;5051648;28;20392;-77
2022/06/28 11:35:02;;;;;;;6.13;1.23;;;24.50;59.40;;;;;;5051646;28;20056;-77
2022/06/28 11:37:29;;;;;;;6.45;1.30;;;24.60;59.60;;;;;;5051160;28;20025;-76
2022/06/28 11:40:02;;;;;;;6.72;1.30;;;24.80;59.70;;;;;;5051503;28;20071;-76
2022/06/28 11:42:28;;;;;;;6.13;1.30;;;24.90;59.80;;;;;;5051385;28;20032;-77
2022/06/28 11:44:55;;;;;;;6.28;1.20;;;25.00;59.60;;;;;;5051414;28;20493;-78
2022/06/28 11:47:22;;;;;;;5.55;1.27;;;25.10;58.10;;;;;;5051742;28;20031;-78
2022/06/28 11:50:08;;;;;;;5.15;1.20;;;25.10;57.60;;;;;;5051517;28;20021;-78
2022/06/28 11:52:46;;;;;;;5.43;1.05;;;25.20;57.50;;;;;;5051781;28;20032;-79
2022/06/28 11:55:11;;;;;;;6.20;1.30;;;25.30;56.90;;;;;;5052078;28;20032;-79
2022/06/28 11:57:39;;;;;;;7.47;1.40;;;25.50;56.70;;;;;;5050512;28;20025;-78
2022/06/28 12:00:06;;;;;;;9.00;1.38;;;25.50;57.00;;;;;;5044875;28;20045;-79
2022/06/28 12:02:47;;;;;;;5.55;1.30;;;25.60;56.90;;;;;;5044906;28;20029;-79
2022/06/28 12:05:13;;;;;;;5.25;1.15;;;25.50;55.90;;;;;;5035816;28;20114;-76
2022/06/28 12:07:42;;;;;;;4.88;1.08;;;25.50;56.30;;;;;;5052420;28;20025;-79
2022/06/28 12:10:25;;;;;;;7.00;1.40;;;25.50;55.50;;;;;;5053213;28;20079;-77
2022/06/28 12:12:52;;;;;;;8.00;1.40;;;25.50;55.40;;;;;;5049981;28;20397;-77
2022/06/28 12:15:32;;;;;;;4.57;1.15;;;25.50;56.30;;;;;;5051398;28;20021;-77
2022/06/28 12:18:05;;;;;;;5.53;1.05;;;25.50;55.80;;;;;;5051812;28;20025;-77
2022/06/28 12:20:32;;;;;;;5.75;1.30;;;25.50;55.70;;;;;;5050535;28;20559;-77
2022/06/28 12:23:00;;;;;;;5.50;1.20;;;25.60;56.20;;;;;;5051297;28;20029;-79
2022/06/28 12:25:26;;;;;;;6.53;1.30;;;25.80;55.20;;;;;;5049536;28;20029;-81
2022/06/28 12:27:52;;;;;;;5.25;1.00;;;25.80;55.70;;;;;;5040603;28;20078;-81
2022/06/28 12:30:18;;;;;;;5.55;1.40;;;25.80;55.10;;;;;;5052351;28;20056;-79
2022/06/28 12:32:44;;;;;;;2.78;1.02;;;25.80;55.00;;;;;;5053820;28;20056;-80
2022/06/28 12:35:10;;;;;;;3.97;0.90;;;25.80;54.60;;;;;;5053589;28;20052;-81
2022/06/28 12:37:37;;;;;;;5.80;1.33;;;25.70;54.20;;;;;;5052861;28;20141;-79
2022/06/28 12:40:04;;;;;;;6.55;1.10;;;25.70;54.00;;;;;;5059465;28;20023;-80
2022/06/28 12:42:31;;;;;;;6.15;1.23;;;25.70;54.50;;;;;;5058970;28;20033;-77
2022/06/28 12:45:00;;;;;;;5.55;1.17;;;25.70;55.00;;;;;;5053420;28;20056;-78
2022/06/28 12:47:27;;;;;;;7.35;1.20;;;25.80;54.80;;;;;;5053049;28;20060;-79
2022/06/28 12:49:52;;;;;;;5.07;1.30;;;25.90;54.30;;;;;;5053541;28;20021;-78
2022/06/28 12:52:18;;;;;;;4.68;1.10;;;25.80;53.90;;;;;;5051214;28;20044;-79